Impacts METAR Board
IDs:

KMCO - Orlando Intl, FL, US

Updated at: 1300 UTC 27 Feb 2021
Potential Impact None Slight Moderate High
Time 27/01Z 27/02Z 27/03Z 27/04Z 27/05Z 27/06Z 27/07Z 27/08Z 27/09Z 27/10Z 27/11Z 27/12Z 27/13Z
Temp69 67 66 66 67 68 68 68 67 67 66 65 68
Dewpt51 53 56 59 61 62 63 64 65 65 65 65 67
Altim30.16 30.17 30.17 30.17 30.17 30.17 30.16 30.16 30.16 30.16 30.18 30.19 30.21
VIS9 10 9 10 10 10 10 10 10 10 10 8 10
CIG-- -- -- -- 65 65 65 65 65 -- -- -- --
CoverCLRCLRCLRFEWBKNBKNBKNBKNBKNSCTFEWFEWCLR
FltCatVFRVFRVFRVFRVFRVFRVFRVFRVFRVFRVFRVFRVFR
WX----------------------MIFG--
WDir901001008001301201401701501500130
WSpd6 7 5 3 0 3 4 3 3 4 5 0 4
WGst-- -- -- -- -- -- -- -- -- -- -- -- --
Raw hourly METARs
KMCO 270053Z 09006KT 9SM CLR 21/11 A3016 RMK AO2 SLP212 T02060106
KMCO 270153Z 10007KT 10SM CLR 19/12 A3017 RMK AO2 SLP213 T01940117
KMCO 270253Z 10005KT 9SM CLR 19/13 A3017 RMK AO2 SLP215 T01890133 51006
KMCO 270353Z 08003KT 10SM FEW030 19/15 A3017 RMK AO2 SLP215 T01890150
KMCO 270453Z 00000KT 10SM BKN065 19/16 A3017 RMK AO2 SLP213 T01940161 402830128
KMCO 270553Z 13003KT 10SM BKN065 20/17 A3017 RMK AO2 SLP214 T02000167 10222 20189 55001
KMCO 270653Z 12004KT 10SM FEW030 SCT050 BKN065 20/17 A3016 RMK AO2 SLP213 T02000172
KMCO 270753Z 14003KT 10SM FEW030 BKN065 20/18 A3016 RMK AO2 SLP211 T02000178
KMCO 270853Z 17003KT 10SM BKN065 19/18 A3016 RMK AO2 SLP211 T01940183 55003
KMCO 270953Z 15004KT 10SM SCT065 19/18 A3016 RMK AO2 SLP213 T01940183
KMCO 271053Z 15005KT 10SM FEW065 19/18 A3018 RMK AO2 SLP216 T01890183
KMCO 271153Z 00000KT 8SM MIFG FEW065 18/18 A3019 RMK AO2 SLP223 T01830183 10200 20178 53011
KMCO 271253Z 13004KT 10SM CLR 20/19 A3021 RMK AO2 SLP227 T02000194



Page loaded:  13:32 UTC  |   05:32 AM Pacific  |   06:32 AM Mountain  |   07:32 AM Central  |   08:32 AM Eastern

 

ADVISORIES

FORECASTS

FORECASTS

OBSERVATIONS

USER TOOLS

ABOUT US